createdAt,value
2023-04-14T00:03:54.377Z,7.55
2023-04-14T00:08:59.285Z,6.53
2023-04-14T00:19:06.610Z,11.15
2023-04-14T00:24:11.416Z,8.18
2023-04-14T00:29:14.636Z,7.80
2023-04-14T00:34:17.799Z,6.00
2023-04-14T00:39:22.903Z,9.25
2023-04-14T00:44:26.544Z,8.48
2023-04-14T00:49:30.187Z,10.05
2023-04-14T00:54:36.485Z,7.35
2023-04-14T00:59:39.784Z,8.20
2023-04-14T01:04:53.771Z,7.68
2023-04-14T01:10:01.230Z,6.35
2023-04-14T01:15:13.351Z,8.30
2023-04-14T01:20:24.348Z,9.43
2023-04-14T01:26:11.940Z,8.68
2023-04-14T01:31:26.752Z,7.70
2023-04-14T01:36:38.915Z,7.10
2023-04-14T01:41:48.372Z,8.00
2023-04-14T01:46:57.727Z,8.75
2023-04-14T01:52:02.318Z,6.00
2023-04-14T01:57:08.228Z,8.25
2023-04-14T02:02:15.283Z,6.28
2023-04-14T02:07:20.798Z,8.52
2023-04-14T02:12:27.995Z,7.53
2023-04-14T02:17:33.774Z,7.80
2023-04-14T02:22:37.512Z,7.45
2023-04-14T02:27:47.498Z,7.57
2023-04-14T02:33:03.189Z,5.80
2023-04-14T02:38:09.696Z,9.18
2023-04-14T02:43:15.524Z,10.15
2023-04-14T02:48:22.756Z,5.30
2023-04-14T02:53:29.448Z,9.68
2023-04-14T02:58:33.285Z,9.05
2023-04-14T03:03:38.822Z,6.40
2023-04-14T03:08:42.590Z,8.32
2023-04-14T03:13:46.947Z,6.88
2023-04-14T03:18:54.578Z,9.63
2023-04-14T03:23:58.855Z,10.70
2023-04-14T03:29:04.911Z,8.67
2023-04-14T03:34:10.866Z,6.50
2023-04-14T03:39:14.996Z,13.55
2023-04-14T03:44:19.827Z,8.20
2023-04-14T03:49:25.453Z,8.25
2023-04-14T03:54:32.533Z,6.57
2023-04-14T03:59:37.865Z,6.63
2023-04-14T04:04:43.535Z,13.40
2023-04-14T04:09:48.644Z,6.10
2023-04-14T04:19:58.666Z,7.65
2023-04-14T04:25:02.202Z,6.38
2023-04-14T04:30:09.304Z,7.30
2023-04-14T04:35:14.377Z,7.15
2023-04-14T04:45:37.827Z,8.57
2023-04-14T04:50:42.843Z,7.45
2023-04-14T04:55:46.196Z,7.88
2023-04-14T05:00:49.364Z,6.85
2023-04-14T05:05:53.856Z,5.43
2023-04-14T05:10:57.002Z,7.75
2023-04-14T05:16:05.035Z,6.25
2023-04-14T05:21:11.575Z,6.60
2023-04-14T05:26:38.891Z,4.88
2023-04-14T05:31:38.461Z,8.98
2023-04-14T05:36:43.469Z,6.45
2023-04-14T05:46:49.820Z,7.10
2023-04-14T05:51:56.247Z,6.85
2023-04-14T05:56:59.608Z,5.25
2023-04-14T06:02:06.902Z,5.47
2023-04-14T06:07:14.569Z,6.18
2023-04-14T06:12:17.816Z,6.88
2023-04-14T06:17:22.443Z,7.57
2023-04-14T06:22:29.522Z,8.85
2023-04-14T06:27:33.834Z,11.88
2023-04-14T06:32:38.033Z,4.43
2023-04-14T06:37:42.924Z,6.40
2023-04-14T06:42:46.172Z,12.80
2023-04-14T06:47:49.497Z,5.25
2023-04-14T06:52:55.013Z,13.23
2023-04-14T06:57:58.255Z,9.48
2023-04-14T07:03:01.622Z,8.18
2023-04-14T07:08:08.863Z,8.07
2023-04-14T07:13:12.051Z,7.55
2023-04-14T07:18:15.463Z,11.80
2023-04-14T07:23:20.097Z,6.07
2023-04-14T07:28:25.225Z,6.72
2023-04-14T07:33:32.208Z,9.50
2023-04-14T07:38:37.576Z,7.72
2023-04-14T07:43:41.715Z,7.55
2023-04-14T07:48:44.850Z,3.97
2023-04-14T07:53:50.178Z,7.22
2023-04-14T07:58:53.882Z,7.28
2023-04-14T08:03:57.894Z,8.15
2023-04-14T08:09:03.543Z,7.33
2023-04-14T08:14:06.897Z,7.53
2023-04-14T08:19:10.052Z,8.48
2023-04-14T08:24:14.613Z,9.00
2023-04-14T08:29:17.738Z,9.10
2023-04-14T08:34:28.282Z,7.82
2023-04-14T08:39:33.401Z,6.38
2023-04-14T08:44:37.508Z,8.30
2023-04-14T08:49:42.977Z,4.63
2023-04-14T08:54:50.171Z,4.45
2023-04-14T08:59:53.859Z,6.30
2023-04-14T09:04:58.740Z,4.70
2023-04-14T09:15:08.456Z,5.13
2023-04-14T09:20:34.768Z,5.20
2023-04-14T09:25:39.075Z,2.63
2023-04-14T09:30:43.300Z,5.00
2023-04-14T09:35:48.636Z,5.40
2023-04-14T09:40:54.913Z,3.65
2023-04-14T09:46:05.466Z,3.40
2023-04-14T09:51:10.771Z,4.15
2023-04-14T09:56:16.002Z,3.35
2023-04-14T10:01:21.444Z,2.35
2023-04-14T10:06:26.914Z,3.55
2023-04-14T10:11:32.807Z,25.27
2023-04-14T10:16:36.330Z,9.88
2023-04-14T10:21:39.573Z,3.35
2023-04-14T10:26:47.310Z,2.88
2023-04-14T10:31:55.118Z,5.03
2023-04-14T10:37:13.291Z,3.40
2023-04-14T10:42:17.888Z,2.70
2023-04-14T10:47:25.317Z,1.98
2023-04-14T10:52:34.820Z,3.85
2023-04-14T10:57:44.913Z,3.25
2023-04-14T11:02:57.224Z,2.17
2023-04-14T11:08:03.227Z,2.10
2023-04-14T11:13:13.099Z,1.92
2023-04-14T11:18:17.989Z,2.95
2023-04-14T11:23:28.337Z,3.95
2023-04-14T11:28:34.543Z,2.83
2023-04-14T11:33:39.941Z,2.42
2023-04-14T11:38:44.110Z,2.65
2023-04-14T11:43:49.054Z,4.17
2023-04-14T11:48:56.349Z,3.97
2023-04-14T11:54:00.869Z,4.72
2023-04-14T11:59:06.795Z,4.25
2023-04-14T12:04:10.717Z,3.60
2023-04-14T12:09:13.939Z,5.57
2023-04-14T12:14:20.162Z,6.75
2023-04-14T12:19:23.339Z,6.28
2023-04-14T12:24:34.127Z,4.80
2023-04-14T12:29:38.990Z,9.57
2023-04-14T12:39:52.006Z,6.35
2023-04-14T12:44:57.915Z,8.15
2023-04-14T12:50:02.569Z,9.43
2023-04-14T12:55:06.830Z,5.80
2023-04-14T13:00:12.919Z,4.23
2023-04-14T13:05:16.112Z,6.53
2023-04-14T13:10:19.323Z,7.53
2023-04-14T13:16:09.760Z,12.45
2023-04-14T13:20:54.041Z,12.53
2023-04-14T13:25:57.564Z,13.40
2023-04-14T13:31:02.053Z,10.02
2023-04-14T13:36:05.621Z,14.15
2023-04-14T13:41:08.838Z,11.10
2023-04-14T13:46:13.479Z,8.80
2023-04-14T13:56:22.781Z,12.45
2023-04-14T14:01:27.599Z,12.13
2023-04-14T14:06:31.411Z,11.13
2023-04-14T14:11:34.757Z,13.18
2023-04-14T14:16:39.389Z,14.85
2023-04-14T14:21:44.081Z,11.93
2023-04-14T14:26:47.242Z,12.68
2023-04-14T14:31:51.860Z,10.93
2023-04-14T14:36:55.395Z,11.63
2023-04-14T14:41:58.682Z,7.85
2023-04-14T14:47:03.421Z,5.60
2023-04-14T14:52:07.389Z,5.32
2023-04-14T14:57:10.449Z,5.50
2023-04-14T15:02:15.198Z,5.70
2023-04-14T15:12:24.628Z,4.70
2023-04-14T15:17:32.193Z,4.72
2023-04-14T15:22:36.790Z,4.22
2023-04-14T15:27:40.984Z,2.80
2023-04-14T15:32:47.064Z,3.33
2023-04-14T15:37:50.458Z,1.42
2023-04-14T15:42:54.397Z,2.15
2023-04-14T15:47:58.979Z,2.08
2023-04-14T15:53:02.111Z,3.17
2023-04-14T15:58:05.525Z,2.33
2023-04-14T16:03:11.969Z,2.40
2023-04-14T16:08:15.888Z,1.98
2023-04-14T16:13:19.089Z,1.38
2023-04-14T16:18:23.749Z,1.73
2023-04-14T16:23:29.055Z,2.15
2023-04-14T16:28:32.236Z,2.58
2023-04-14T16:33:36.818Z,3.00
2023-04-14T16:38:40.353Z,1.90
2023-04-14T16:43:43.493Z,1.27
2023-04-14T16:48:48.117Z,0.70
2023-04-14T16:53:51.963Z,0.70
2023-04-14T16:58:55.181Z,0.90
2023-04-14T17:04:00.042Z,2.33
2023-04-14T17:09:03.658Z,1.98
2023-04-14T17:14:08.283Z,0.82
2023-04-14T17:24:16.085Z,2.15
2023-04-14T17:29:19.285Z,0.98
2023-04-14T17:34:24.011Z,1.10
2023-04-14T17:39:28.444Z,3.00
2023-04-14T17:44:33.793Z,1.33
2023-04-14T17:49:38.459Z,1.48
2023-04-14T17:54:41.793Z,1.80
2023-04-14T17:59:46.076Z,2.05
2023-04-14T18:04:50.800Z,1.75
2023-04-14T18:09:54.875Z,1.92
2023-04-14T18:14:58.138Z,1.77
2023-04-14T18:20:05.065Z,2.08
2023-04-14T18:25:09.290Z,2.03
2023-04-14T18:30:12.982Z,3.57
2023-04-14T18:35:17.830Z,2.95
2023-04-14T18:45:24.648Z,2.58
2023-04-14T18:50:30.762Z,4.15
2023-04-14T18:55:45.072Z,3.70
2023-04-14T19:00:49.797Z,4.50
2023-04-14T19:05:55.648Z,4.53
2023-04-14T19:10:59.556Z,3.75
2023-04-14T19:16:08.551Z,3.50
2023-04-14T19:21:13.559Z,3.58
2023-04-14T19:26:18.235Z,9.10
2023-04-14T19:31:21.729Z,6.78
2023-04-14T19:36:26.470Z,5.70
2023-04-14T19:41:29.753Z,5.32
2023-04-14T19:46:33.277Z,5.43
2023-04-14T19:51:38.215Z,7.82
2023-04-14T19:56:41.596Z,9.93
2023-04-14T20:01:45.351Z,11.75
2023-04-14T20:06:50.143Z,10.00
2023-04-14T20:11:53.813Z,8.35
2023-04-14T20:16:57.324Z,7.55
2023-04-14T20:22:02.109Z,9.25
2023-04-14T20:27:05.602Z,7.68
2023-04-14T20:32:09.571Z,7.45
2023-04-14T20:37:14.238Z,9.75
2023-04-14T20:42:17.638Z,7.03
2023-04-14T20:47:20.988Z,10.88
2023-04-14T20:52:26.650Z,10.95
2023-04-14T20:57:29.944Z,8.75
2023-04-14T21:02:33.262Z,11.48
2023-04-14T21:07:39.914Z,11.35
2023-04-14T21:12:54.208Z,10.80
2023-04-14T21:18:06.423Z,15.38
2023-04-14T21:23:11.009Z,17.52
2023-04-14T21:28:14.169Z,13.38
2023-04-14T21:33:17.391Z,11.55
2023-04-14T21:38:22.024Z,12.38
2023-04-14T21:43:25.385Z,13.70
2023-04-14T21:48:28.940Z,14.68
2023-04-14T21:53:33.889Z,10.98
2023-04-14T22:03:41.796Z,127.78
2023-04-14T22:13:49.873Z,164.48
2023-04-14T22:18:54.079Z,20.02
2023-04-14T22:23:58.841Z,12.90
2023-04-14T22:29:02.447Z,12.60
2023-04-14T22:34:05.953Z,12.07
2023-04-14T22:39:10.505Z,12.07
2023-04-14T22:44:13.717Z,54.40
2023-04-14T22:49:16.840Z,14.18
2023-04-14T22:54:21.387Z,11.43
2023-04-14T22:59:26.659Z,15.10
2023-04-14T23:04:31.509Z,12.77
2023-04-14T23:09:36.091Z,28.38
2023-04-14T23:14:39.217Z,172.50
2023-04-14T23:19:42.350Z,143.95
2023-04-14T23:24:47.215Z,81.13
2023-04-14T23:34:53.227Z,139.38
2023-04-14T23:39:57.852Z,56.08
2023-04-14T23:45:01.501Z,15.85
2023-04-14T23:50:04.774Z,12.60
2023-04-14T23:55:10.281Z,12.52
